sensor_id;sensor_type;location;lat;lon;timestamp;temperature;humidity
13091;DHT22;6611;52.604;13.438;2023-05-07T00:00:56;9.07;87.72
13091;DHT22;6611;52.604;13.438;2023-05-07T00:06:01;9.13;87.09
13091;DHT22;6611;52.604;13.438;2023-05-07T00:11:03;9.09;87.27
13091;DHT22;6611;52.604;13.438;2023-05-07T00:16:05;9.01;87.57
13091;DHT22;6611;52.604;13.438;2023-05-07T00:21:08;9.00;87.70
13091;DHT22;6611;52.604;13.438;2023-05-07T00:26:09;8.99;87.01
13091;DHT22;6611;52.604;13.438;2023-05-07T00:31:11;8.99;87.14
13091;DHT22;6611;52.604;13.438;2023-05-07T00:36:14;8.97;87.04
13091;DHT22;6611;52.604;13.438;2023-05-07T00:41:16;8.79;87.87
13091;DHT22;6611;52.604;13.438;2023-05-07T00:46:18;8.82;87.95
13091;DHT22;6611;52.604;13.438;2023-05-07T00:51:23;8.92;87.85
13091;DHT22;6611;52.604;13.438;2023-05-07T00:56:25;8.87;87.79
13091;DHT22;6611;52.604;13.438;2023-05-07T01:01:27;8.83;88.37
13091;DHT22;6611;52.604;13.438;2023-05-07T01:06:32;8.92;87.72
13091;DHT22;6611;52.604;13.438;2023-05-07T01:11:34;8.89;88.08
13091;DHT22;6611;52.604;13.438;2023-05-07T01:16:36;8.86;87.83
13091;DHT22;6611;52.604;13.438;2023-05-07T01:21:45;8.92;87.77
13091;DHT22;6611;52.604;13.438;2023-05-07T01:26:48;8.83;87.95
13091;DHT22;6611;52.604;13.438;2023-05-07T01:31:50;8.89;87.62
13091;DHT22;6611;52.604;13.438;2023-05-07T01:36:54;8.83;87.88
13091;DHT22;6611;52.604;13.438;2023-05-07T01:41:59;8.90;87.32
13091;DHT22;6611;52.604;13.438;2023-05-07T01:47:02;8.94;87.74
13091;DHT22;6611;52.604;13.438;2023-05-07T01:52:04;8.93;87.13
13091;DHT22;6611;52.604;13.438;2023-05-07T01:57:07;8.96;86.78
13091;DHT22;6611;52.604;13.438;2023-05-07T02:02:09;8.93;86.89
13091;DHT22;6611;52.604;13.438;2023-05-07T02:07:10;8.93;86.25
13091;DHT22;6611;52.604;13.438;2023-05-07T02:12:13;8.92;86.26
13091;DHT22;6611;52.604;13.438;2023-05-07T02:17:15;8.89;86.51
13091;DHT22;6611;52.604;13.438;2023-05-07T02:22:17;8.79;86.60
13091;DHT22;6611;52.604;13.438;2023-05-07T02:27:20;8.80;86.28
13091;DHT22;6611;52.604;13.438;2023-05-07T02:32:22;8.79;86.17
13091;DHT22;6611;52.604;13.438;2023-05-07T02:37:23;8.79;86.56
13091;DHT22;6611;52.604;13.438;2023-05-07T02:42:26;8.76;86.47
13091;DHT22;6611;52.604;13.438;2023-05-07T02:47:28;8.77;86.21
13091;DHT22;6611;52.604;13.438;2023-05-07T02:52:30;8.80;86.22
13091;DHT22;6611;52.604;13.438;2023-05-07T02:57:34;8.79;85.66
13091;DHT22;6611;52.604;13.438;2023-05-07T03:02:36;8.76;86.44
13091;DHT22;6611;52.604;13.438;2023-05-07T03:07:38;8.76;85.99
13091;DHT22;6611;52.604;13.438;2023-05-07T03:12:41;8.83;85.51
13091;DHT22;6611;52.604;13.438;2023-05-07T03:17:42;8.80;85.90
13091;DHT22;6611;52.604;13.438;2023-05-07T03:22:44;8.79;85.72
13091;DHT22;6611;52.604;13.438;2023-05-07T03:27:47;8.75;85.97
13091;DHT22;6611;52.604;13.438;2023-05-07T03:32:49;8.82;85.87
13091;DHT22;6611;52.604;13.438;2023-05-07T03:37:50;8.80;85.83
13091;DHT22;6611;52.604;13.438;2023-05-07T03:42:53;8.83;85.88
13091;DHT22;6611;52.604;13.438;2023-05-07T03:47:55;8.84;85.52
13091;DHT22;6611;52.604;13.438;2023-05-07T03:52:57;8.82;85.40
13091;DHT22;6611;52.604;13.438;2023-05-07T03:58:00;8.84;84.78
13091;DHT22;6611;52.604;13.438;2023-05-07T04:03:01;8.77;84.73
13091;DHT22;6611;52.604;13.438;2023-05-07T04:08:04;8.79;85.01
13091;DHT22;6611;52.604;13.438;2023-05-07T04:13:08;8.84;84.70
13091;DHT22;6611;52.604;13.438;2023-05-07T04:18:09;8.86;84.36
13091;DHT22;6611;52.604;13.438;2023-05-07T04:23:11;8.80;85.26
13091;DHT22;6611;52.604;13.438;2023-05-07T04:28:14;8.96;83.98
13091;DHT22;6611;52.604;13.438;2023-05-07T04:33:16;8.92;84.51
13091;DHT22;6611;52.604;13.438;2023-05-07T04:38:18;8.80;84.48
13091;DHT22;6611;52.604;13.438;2023-05-07T04:43:21;8.80;84.99
13091;DHT22;6611;52.604;13.438;2023-05-07T04:48:23;8.75;84.69
13091;DHT22;6611;52.604;13.438;2023-05-07T04:53:25;8.76;84.18
13091;DHT22;6611;52.604;13.438;2023-05-07T04:58:28;8.83;83.34
13091;DHT22;6611;52.604;13.438;2023-05-07T05:03:31;8.80;83.43
13091;DHT22;6611;52.604;13.438;2023-05-07T05:08:33;8.90;83.60
13091;DHT22;6611;52.604;13.438;2023-05-07T05:13:36;9.03;83.04
13091;DHT22;6611;52.604;13.438;2023-05-07T05:18:38;9.11;83.26
13091;DHT22;6611;52.604;13.438;2023-05-07T05:23:39;9.20;82.15
13091;DHT22;6611;52.604;13.438;2023-05-07T05:28:42;9.61;80.55
13091;DHT22;6611;52.604;13.438;2023-05-07T05:33:45;10.01;78.44
13091;DHT22;6611;52.604;13.438;2023-05-07T05:38:47;10.21;76.98
13091;DHT22;6611;52.604;13.438;2023-05-07T05:43:50;10.01;77.90
13091;DHT22;6611;52.604;13.438;2023-05-07T05:48:51;10.45;76.80
13091;DHT22;6611;52.604;13.438;2023-05-07T05:53:53;10.37;76.53
13091;DHT22;6611;52.604;13.438;2023-05-07T05:58:56;10.86;76.27
13091;DHT22;6611;52.604;13.438;2023-05-07T06:03:58;10.93;75.35
13091;DHT22;6611;52.604;13.438;2023-05-07T06:08:59;11.45;75.22
13091;DHT22;6611;52.604;13.438;2023-05-07T06:14:02;11.20;75.16
13091;DHT22;6611;52.604;13.438;2023-05-07T06:19:04;11.11;75.17
13091;DHT22;6611;52.604;13.438;2023-05-07T06:24:06;11.46;75.23
13091;DHT22;6611;52.604;13.438;2023-05-07T06:29:09;11.98;72.88
13091;DHT22;6611;52.604;13.438;2023-05-07T06:34:11;11.70;72.69
13091;DHT22;6611;52.604;13.438;2023-05-07T06:39:14;11.67;73.41
13091;DHT22;6611;52.604;13.438;2023-05-07T06:44:17;11.98;72.47
13091;DHT22;6611;52.604;13.438;2023-05-07T06:49:19;11.82;71.11
13091;DHT22;6611;52.604;13.438;2023-05-07T06:54:20;11.63;72.91
13091;DHT22;6611;52.604;13.438;2023-05-07T06:59:23;12.20;71.62
13091;DHT22;6611;52.604;13.438;2023-05-07T07:04:25;12.79;68.88
13091;DHT22;6611;52.604;13.438;2023-05-07T07:09:27;13.77;67.68
13091;DHT22;6611;52.604;13.438;2023-05-07T07:14:30;14.22;66.79
13091;DHT22;6611;52.604;13.438;2023-05-07T07:19:31;14.38;66.30
13091;DHT22;6611;52.604;13.438;2023-05-07T07:24:33;14.72;61.52
13091;DHT22;6611;52.604;13.438;2023-05-07T07:29:36;14.57;61.34
13091;DHT22;6611;52.604;13.438;2023-05-07T07:34:38;13.77;64.79
13091;DHT22;6611;52.604;13.438;2023-05-07T07:39:39;14.25;66.55
13091;DHT22;6611;52.604;13.438;2023-05-07T07:44:42;15.07;62.74
13091;DHT22;6611;52.604;13.438;2023-05-07T07:49:44;15.28;60.45
13091;DHT22;6611;52.604;13.438;2023-05-07T07:54:46;15.39;60.61
13091;DHT22;6611;52.604;13.438;2023-05-07T07:59:49;15.08;60.95
13091;DHT22;6611;52.604;13.438;2023-05-07T08:04:50;15.12;59.46
13091;DHT22;6611;52.604;13.438;2023-05-07T08:09:52;15.61;60.01
13091;DHT22;6611;52.604;13.438;2023-05-07T08:14:55;15.84;56.16
13091;DHT22;6611;52.604;13.438;2023-05-07T08:19:57;15.71;57.81
13091;DHT22;6611;52.604;13.438;2023-05-07T08:24:58;15.57;58.02
13091;DHT22;6611;52.604;13.438;2023-05-07T08:30:02;15.40;57.29
13091;DHT22;6611;52.604;13.438;2023-05-07T08:35:05;15.91;58.30
13091;DHT22;6611;52.604;13.438;2023-05-07T08:40:07;16.53;56.69
13091;DHT22;6611;52.604;13.438;2023-05-07T08:45:11;16.14;56.04
13091;DHT22;6611;52.604;13.438;2023-05-07T08:50:13;16.67;54.95
13091;DHT22;6611;52.604;13.438;2023-05-07T08:55:14;16.15;55.20
13091;DHT22;6611;52.604;13.438;2023-05-07T09:00:18;15.61;56.93
13091;DHT22;6611;52.604;13.438;2023-05-07T09:05:20;14.99;58.77
13091;DHT22;6611;52.604;13.438;2023-05-07T09:10:21;14.97;59.95
13091;DHT22;6611;52.604;13.438;2023-05-07T09:15:25;15.16;59.18
13091;DHT22;6611;52.604;13.438;2023-05-07T09:20:27;15.69;57.49
13091;DHT22;6611;52.604;13.438;2023-05-07T09:25:29;16.18;55.48
13091;DHT22;6611;52.604;13.438;2023-05-07T09:30:33;15.04;59.09
13091;DHT22;6611;52.604;13.438;2023-05-07T09:35:37;15.42;58.36
13091;DHT22;6611;52.604;13.438;2023-05-07T09:40:39;14.69;59.38
13091;DHT22;6611;52.604;13.438;2023-05-07T09:45:42;14.46;61.50
13091;DHT22;6611;52.604;13.438;2023-05-07T09:50:48;14.72;60.07
13091;DHT22;6611;52.604;13.438;2023-05-07T09:55:51;14.49;59.96
13091;DHT22;6611;52.604;13.438;2023-05-07T10:00:54;14.55;62.61
13091;DHT22;6611;52.604;13.438;2023-05-07T10:05:58;14.94;60.92
13091;DHT22;6611;52.604;13.438;2023-05-07T10:11:00;15.61;58.68
13091;DHT22;6611;52.604;13.438;2023-05-07T10:16:03;15.59;58.49
13091;DHT22;6611;52.604;13.438;2023-05-07T10:21:07;16.05;58.53
13091;DHT22;6611;52.604;13.438;2023-05-07T10:26:09;16.15;56.44
13091;DHT22;6611;52.604;13.438;2023-05-07T10:31:28;15.36;55.97
13091;DHT22;6611;52.604;13.438;2023-05-07T10:36:35;15.16;57.97
13091;DHT22;6611;52.604;13.438;2023-05-07T10:41:37;15.38;56.80
13091;DHT22;6611;52.604;13.438;2023-05-07T10:46:40;15.24;58.00
13091;DHT22;6611;52.604;13.438;2023-05-07T10:51:41;15.15;57.96
13091;DHT22;6611;52.604;13.438;2023-05-07T10:56:46;15.07;56.96
13091;DHT22;6611;52.604;13.438;2023-05-07T11:01:53;14.90;55.80
13091;DHT22;6611;52.604;13.438;2023-05-07T11:07:27;15.16;58.77
13091;DHT22;6611;52.604;13.438;2023-05-07T11:13:02;16.33;54.86
13091;DHT22;6611;52.604;13.438;2023-05-07T11:18:05;16.52;53.41
13091;DHT22;6611;52.604;13.438;2023-05-07T11:23:07;17.69;53.92
13091;DHT22;6611;52.604;13.438;2023-05-07T11:28:09;17.87;50.07
13091;DHT22;6611;52.604;13.438;2023-05-07T11:33:17;17.22;51.51
13091;DHT22;6611;52.604;13.438;2023-05-07T11:38:19;16.81;53.17
13091;DHT22;6611;52.604;13.438;2023-05-07T11:43:21;16.75;53.10
13091;DHT22;6611;52.604;13.438;2023-05-07T11:48:24;16.77;52.48
13091;DHT22;6611;52.604;13.438;2023-05-07T11:53:27;16.71;52.75
13091;DHT22;6611;52.604;13.438;2023-05-07T11:58:29;16.39;54.47
13091;DHT22;6611;52.604;13.438;2023-05-07T12:03:32;16.59;50.74
13091;DHT22;6611;52.604;13.438;2023-05-07T12:08:36;17.22;51.32
13091;DHT22;6611;52.604;13.438;2023-05-07T12:13:37;16.92;48.78
13091;DHT22;6611;52.604;13.438;2023-05-07T12:18:41;17.56;50.77
13091;DHT22;6611;52.604;13.438;2023-05-07T12:23:43;17.97;49.49
13091;DHT22;6611;52.604;13.438;2023-05-07T12:28:45;18.40;48.03
13091;DHT22;6611;52.604;13.438;2023-05-07T12:33:49;17.98;48.70
13091;DHT22;6611;52.604;13.438;2023-05-07T12:38:51;17.61;51.19
13091;DHT22;6611;52.604;13.438;2023-05-07T12:43:56;18.09;49.15
13091;DHT22;6611;52.604;13.438;2023-05-07T12:48:59;17.47;48.81
13091;DHT22;6611;52.604;13.438;2023-05-07T12:54:01;17.81;49.93
13091;DHT22;6611;52.604;13.438;2023-05-07T12:59:03;17.51;48.15
13091;DHT22;6611;52.604;13.438;2023-05-07T13:04:06;17.40;48.21
13091;DHT22;6611;52.604;13.438;2023-05-07T13:09:07;17.46;48.65
13091;DHT22;6611;52.604;13.438;2023-05-07T13:14:09;17.28;49.78
13091;DHT22;6611;52.604;13.438;2023-05-07T13:19:12;17.64;47.12
13091;DHT22;6611;52.604;13.438;2023-05-07T13:24:14;17.50;47.34
13091;DHT22;6611;52.604;13.438;2023-05-07T13:29:15;17.87;48.30
13091;DHT22;6611;52.604;13.438;2023-05-07T13:34:18;17.66;47.66
13091;DHT22;6611;52.604;13.438;2023-05-07T13:39:20;17.16;49.47
13091;DHT22;6611;52.604;13.438;2023-05-07T13:44:22;16.87;49.96
13091;DHT22;6611;52.604;13.438;2023-05-07T13:49:25;16.85;49.19
13091;DHT22;6611;52.604;13.438;2023-05-07T13:54:26;17.37;47.61
13091;DHT22;6611;52.604;13.438;2023-05-07T13:59:28;17.73;47.65
13091;DHT22;6611;52.604;13.438;2023-05-07T14:04:31;18.40;45.82
13091;DHT22;6611;52.604;13.438;2023-05-07T14:09:33;18.57;48.13
13091;DHT22;6611;52.604;13.438;2023-05-07T14:14:35;18.15;48.02
13091;DHT22;6611;52.604;13.438;2023-05-07T14:19:38;17.70;47.72
13091;DHT22;6611;52.604;13.438;2023-05-07T14:24:39;17.00;50.82
13091;DHT22;6611;52.604;13.438;2023-05-07T14:29:41;16.87;48.30
13091;DHT22;6611;52.604;13.438;2023-05-07T14:34:44;17.33;48.47
13091;DHT22;6611;52.604;13.438;2023-05-07T14:39:46;17.94;48.32
13091;DHT22;6611;52.604;13.438;2023-05-07T14:44:48;17.45;48.31
13091;DHT22;6611;52.604;13.438;2023-05-07T14:49:51;17.08;47.21
13091;DHT22;6611;52.604;13.438;2023-05-07T14:54:53;17.46;47.09
13091;DHT22;6611;52.604;13.438;2023-05-07T14:59:55;17.46;47.50
13091;DHT22;6611;52.604;13.438;2023-05-07T15:04:58;17.05;48.48
13091;DHT22;6611;52.604;13.438;2023-05-07T15:10:00;17.07;48.91
13091;DHT22;6611;52.604;13.438;2023-05-07T15:15:02;17.04;49.64
13091;DHT22;6611;52.604;13.438;2023-05-07T15:20:06;17.22;49.59
13091;DHT22;6611;52.604;13.438;2023-05-07T15:25:08;17.01;49.64
13091;DHT22;6611;52.604;13.438;2023-05-07T15:30:11;16.73;50.79
13091;DHT22;6611;52.604;13.438;2023-05-07T15:35:15;16.36;52.67
13091;DHT22;6611;52.604;13.438;2023-05-07T15:40:21;16.25;51.68
13091;DHT22;6611;52.604;13.438;2023-05-07T15:45:24;16.50;50.73
13091;DHT22;6611;52.604;13.438;2023-05-07T15:50:27;16.30;50.87
13091;DHT22;6611;52.604;13.438;2023-05-07T15:55:29;16.39;50.94
13091;DHT22;6611;52.604;13.438;2023-05-07T16:00:31;16.53;49.89
13091;DHT22;6611;52.604;13.438;2023-05-07T16:05:37;16.14;52.04
13091;DHT22;6611;52.604;13.438;2023-05-07T16:10:38;15.60;53.38
13091;DHT22;6611;52.604;13.438;2023-05-07T16:15:40;15.29;52.54
13091;DHT22;6611;52.604;13.438;2023-05-07T16:20:44;15.66;52.14
13091;DHT22;6611;52.604;13.438;2023-05-07T16:25:46;15.74;51.61
13091;DHT22;6611;52.604;13.438;2023-05-07T16:30:48;15.64;52.44
13091;DHT22;6611;52.604;13.438;2023-05-07T16:35:54;15.46;53.32
13091;DHT22;6611;52.604;13.438;2023-05-07T16:40:55;15.64;54.55
13091;DHT22;6611;52.604;13.438;2023-05-07T16:45:57;15.71;53.07
13091;DHT22;6611;52.604;13.438;2023-05-07T16:51:00;15.69;53.06
13091;DHT22;6611;52.604;13.438;2023-05-07T16:56:03;15.52;54.54
13091;DHT22;6611;52.604;13.438;2023-05-07T17:01:05;15.22;53.56
13091;DHT22;6611;52.604;13.438;2023-05-07T17:06:08;14.95;55.02
13091;DHT22;6611;52.604;13.438;2023-05-07T17:11:14;14.50;55.81
13091;DHT22;6611;52.604;13.438;2023-05-07T17:16:15;14.28;55.59
13091;DHT22;6611;52.604;13.438;2023-05-07T17:21:19;14.26;56.26
13091;DHT22;6611;52.604;13.438;2023-05-07T17:26:20;14.29;55.20
13091;DHT22;6611;52.604;13.438;2023-05-07T17:31:22;14.18;55.37
13091;DHT22;6611;52.604;13.438;2023-05-07T17:36:25;14.12;55.49
13091;DHT22;6611;52.604;13.438;2023-05-07T17:41:27;14.11;56.95
13091;DHT22;6611;52.604;13.438;2023-05-07T17:46:28;14.01;56.06
13091;DHT22;6611;52.604;13.438;2023-05-07T17:51:32;14.02;57.16
13091;DHT22;6611;52.604;13.438;2023-05-07T17:56:33;14.08;56.42
13091;DHT22;6611;52.604;13.438;2023-05-07T18:01:35;13.94;57.24
13091;DHT22;6611;52.604;13.438;2023-05-07T18:06:39;13.74;58.17
13091;DHT22;6611;52.604;13.438;2023-05-07T18:11:41;13.70;57.87
13091;DHT22;6611;52.604;13.438;2023-05-07T18:16:43;13.63;58.01
13091;DHT22;6611;52.604;13.438;2023-05-07T18:21:46;13.52;57.68
13091;DHT22;6611;52.604;13.438;2023-05-07T18:26:48;13.35;57.82
13091;DHT22;6611;52.604;13.438;2023-05-07T18:31:50;13.14;57.89
13091;DHT22;6611;52.604;13.438;2023-05-07T18:36:53;13.07;58.06
13091;DHT22;6611;52.604;13.438;2023-05-07T18:41:55;12.94;58.84
13091;DHT22;6611;52.604;13.438;2023-05-07T18:46:57;12.87;58.21
13091;DHT22;6611;52.604;13.438;2023-05-07T18:52:00;12.67;59.07
13091;DHT22;6611;52.604;13.438;2023-05-07T18:57:02;12.52;59.86
13091;DHT22;6611;52.604;13.438;2023-05-07T19:02:04;12.43;59.56
13091;DHT22;6611;52.604;13.438;2023-05-07T19:07:07;12.43;59.38
13091;DHT22;6611;52.604;13.438;2023-05-07T19:12:09;12.46;59.42
13091;DHT22;6611;52.604;13.438;2023-05-07T19:17:11;12.36;60.21
13091;DHT22;6611;52.604;13.438;2023-05-07T19:22:15;12.31;60.14
13091;DHT22;6611;52.604;13.438;2023-05-07T19:27:16;12.32;59.46
13091;DHT22;6611;52.604;13.438;2023-05-07T19:32:18;12.25;59.41
13091;DHT22;6611;52.604;13.438;2023-05-07T19:37:22;12.16;60.49
13091;DHT22;6611;52.604;13.438;2023-05-07T19:42:26;12.07;60.91
13091;DHT22;6611;52.604;13.438;2023-05-07T19:47:28;11.90;61.09
13091;DHT22;6611;52.604;13.438;2023-05-07T19:52:31;11.70;61.76
13091;DHT22;6611;52.604;13.438;2023-05-07T19:57:33;11.74;61.13
13091;DHT22;6611;52.604;13.438;2023-05-07T20:02:34;11.63;61.74
13091;DHT22;6611;52.604;13.438;2023-05-07T20:07:37;11.55;62.25
13091;DHT22;6611;52.604;13.438;2023-05-07T20:12:39;11.43;62.89
13091;DHT22;6611;52.604;13.438;2023-05-07T20:17:41;11.31;63.65
13091;DHT22;6611;52.604;13.438;2023-05-07T20:22:44;11.15;64.48
13091;DHT22;6611;52.604;13.438;2023-05-07T20:27:45;10.97;65.12
13091;DHT22;6611;52.604;13.438;2023-05-07T20:32:47;10.93;65.31
13091;DHT22;6611;52.604;13.438;2023-05-07T20:37:50;10.72;66.43
13091;DHT22;6611;52.604;13.438;2023-05-07T20:42:52;10.56;67.17
13091;DHT22;6611;52.604;13.438;2023-05-07T20:47:53;10.45;67.82
13091;DHT22;6611;52.604;13.438;2023-05-07T20:52:56;10.52;67.72
13091;DHT22;6611;52.604;13.438;2023-05-07T20:57:58;10.59;68.30
13091;DHT22;6611;52.604;13.438;2023-05-07T21:03:00;10.40;69.57
13091;DHT22;6611;52.604;13.438;2023-05-07T21:08:04;10.25;70.61
13091;DHT22;6611;52.604;13.438;2023-05-07T21:13:06;10.15;71.16
13091;DHT22;6611;52.604;13.438;2023-05-07T21:18:08;10.03;71.23
13091;DHT22;6611;52.604;13.438;2023-05-07T21:23:11;10.03;71.54
13091;DHT22;6611;52.604;13.438;2023-05-07T21:28:12;10.17;70.60
13091;DHT22;6611;52.604;13.438;2023-05-07T21:33:14;10.18;70.29
13091;DHT22;6611;52.604;13.438;2023-05-07T21:38:18;10.15;70.02
13091;DHT22;6611;52.604;13.438;2023-05-07T21:43:19;10.20;69.47
13091;DHT22;6611;52.604;13.438;2023-05-07T21:48:21;10.17;69.31
13091;DHT22;6611;52.604;13.438;2023-05-07T21:53:24;10.08;69.67
13091;DHT22;6611;52.604;13.438;2023-05-07T21:58:27;10.06;69.65
13091;DHT22;6611;52.604;13.438;2023-05-07T22:03:30;9.98;70.01
13091;DHT22;6611;52.604;13.438;2023-05-07T22:08:33;9.89;70.50
13091;DHT22;6611;52.604;13.438;2023-05-07T22:13:34;9.86;70.85
13091;DHT22;6611;52.604;13.438;2023-05-07T22:18:36;9.80;71.11
13091;DHT22;6611;52.604;13.438;2023-05-07T22:23:39;9.68;71.77
13091;DHT22;6611;52.604;13.438;2023-05-07T22:28:41;9.63;71.79
13091;DHT22;6611;52.604;13.438;2023-05-07T22:33:42;9.54;72.11
13091;DHT22;6611;52.604;13.438;2023-05-07T22:38:45;9.52;72.25
13091;DHT22;6611;52.604;13.438;2023-05-07T22:43:47;9.49;72.33
13091;DHT22;6611;52.604;13.438;2023-05-07T22:48:49;9.37;73.04
13091;DHT22;6611;52.604;13.438;2023-05-07T22:53:52;9.27;73.58
13091;DHT22;6611;52.604;13.438;2023-05-07T22:58:53;9.13;74.12
13091;DHT22;6611;52.604;13.438;2023-05-07T23:03:55;9.09;74.28
13091;DHT22;6611;52.604;13.438;2023-05-07T23:08:58;9.06;74.37
13091;DHT22;6611;52.604;13.438;2023-05-07T23:14:00;8.93;74.99
13091;DHT22;6611;52.604;13.438;2023-05-07T23:19:01;8.90;75.27
13091;DHT22;6611;52.604;13.438;2023-05-07T23:24:05;8.75;75.90
13091;DHT22;6611;52.604;13.438;2023-05-07T23:29:07;8.64;76.40
13091;DHT22;6611;52.604;13.438;2023-05-07T23:34:09;8.42;77.04
13091;DHT22;6611;52.604;13.438;2023-05-07T23:39:12;8.27;77.53
13091;DHT22;6611;52.604;13.438;2023-05-07T23:44:13;8.21;77.64
13091;DHT22;6611;52.604;13.438;2023-05-07T23:49:16;8.16;77.89
13091;DHT22;6611;52.604;13.438;2023-05-07T23:54:19;7.99;78.36
13091;DHT22;6611;52.604;13.438;2023-05-07T23:59:21;7.87;78.68
